Time;durP1;ratioP1;P1;durP2;ratioP2;P2;SDS_P1;SDS_P2;PMS_P1;PMS_P2;Temp;Humidity;BMP_temperature;BMP_pressure;BME280_temperature;BME280_humidity;BME280_pressure;Samples;Min_cycle;Max_cycle;Signal;HPM_P1;HPM_P2
2024/01/06 00:01:48;;;;;;;34.63;15.20;;;2.80;99.90;;;;;;4753772;30;20283;-91
2024/01/06 00:04:14;;;;;;;29.53;14.77;;;2.80;99.90;;;;;;4765232;30;20207;-90
2024/01/06 00:06:39;;;;;;;31.73;16.50;;;2.80;99.90;;;;;;4772588;30;20702;-93
2024/01/06 00:09:05;;;;;;;34.83;15.73;;;2.90;99.90;;;;;;4772046;30;20196;-89
2024/01/06 00:11:31;;;;;;;32.23;15.57;;;2.80;99.90;;;;;;4765424;30;20301;-91
2024/01/06 00:13:56;;;;;;;36.80;14.67;;;2.80;99.90;;;;;;4754501;30;20242;-92
2024/01/06 00:16:22;;;;;;;25.93;14.83;;;2.80;99.90;;;;;;4754092;30;20540;-92
2024/01/06 00:18:48;;;;;;;37.60;14.90;;;2.80;99.90;;;;;;4747098;30;20668;-91
2024/01/06 00:21:14;;;;;;;38.23;15.23;;;2.80;99.90;;;;;;4754496;30;20196;-92
2024/01/06 00:23:41;;;;;;;36.17;15.47;;;2.80;99.90;;;;;;4746963;30;20215;-92
2024/01/06 00:26:08;;;;;;;39.67;16.50;;;2.70;99.90;;;;;;4754002;30;20486;-91
2024/01/06 00:28:34;;;;;;;30.17;16.03;;;2.70;99.90;;;;;;4749928;30;20546;-92
2024/01/06 00:31:00;;;;;;;27.10;14.53;;;2.80;99.90;;;;;;4751077;30;20228;-92
2024/01/06 00:33:26;;;;;;;30.13;15.67;;;2.80;99.90;;;;;;4747407;30;20192;-91
2024/01/06 00:35:52;;;;;;;33.80;15.37;;;2.70;99.90;;;;;;4754045;30;20205;-93
2024/01/06 00:38:18;;;;;;;33.03;14.63;;;2.70;99.90;;;;;;4753744;30;20305;-92
2024/01/06 00:40:44;;;;;;;27.90;15.13;;;2.70;99.90;;;;;;4751771;30;20287;-90
2024/01/06 00:43:10;;;;;;;32.47;14.83;;;2.70;99.90;;;;;;4751740;30;20306;-94
2024/01/06 00:45:36;;;;;;;38.77;14.60;;;2.80;99.90;;;;;;4753978;30;20654;-91
2024/01/06 00:48:01;;;;;;;26.70;14.43;;;2.70;99.90;;;;;;4739048;30;20205;-91
2024/01/06 00:50:27;;;;;;;33.07;14.47;;;2.80;99.90;;;;;;4754009;30;20228;-91
2024/01/06 00:52:53;;;;;;;38.23;14.63;;;2.80;99.90;;;;;;4753778;30;20678;-92
2024/01/06 00:55:23;;;;;;;34.23;14.20;;;2.70;99.90;;;;;;4753941;30;20623;-92
2024/01/06 00:57:49;;;;;;;38.00;14.53;;;2.80;99.90;;;;;;4753576;30;20331;-92
2024/01/06 01:00:15;;;;;;;31.40;14.73;;;2.80;99.90;;;;;;4753862;30;20204;-92
2024/01/06 01:02:41;;;;;;;29.83;14.70;;;2.80;99.90;;;;;;4753783;30;20204;-93
2024/01/06 01:05:07;;;;;;;34.40;14.50;;;2.80;99.90;;;;;;4753794;30;20261;-91
2024/01/06 01:07:33;;;;;;;38.50;14.93;;;2.80;99.90;;;;;;4753661;30;20200;-92
2024/01/06 01:09:59;;;;;;;32.70;13.77;;;2.80;99.90;;;;;;4753123;30;20231;-92
2024/01/06 01:12:25;;;;;;;35.73;15.03;;;2.70;99.90;;;;;;4749804;30;20248;-90
2024/01/06 01:14:52;;;;;;;33.77;15.03;;;2.70;99.90;;;;;;4754829;30;20196;-92
2024/01/06 01:17:18;;;;;;;37.73;14.93;;;2.60;99.90;;;;;;4746085;30;20193;-93
2024/01/06 01:19:45;;;;;;;41.90;14.50;;;2.70;99.90;;;;;;4753524;30;20196;-90
2024/01/06 01:22:10;;;;;;;33.63;13.87;;;2.60;99.90;;;;;;4767645;30;20200;-94
2024/01/06 01:24:36;;;;;;;36.37;15.53;;;2.60;99.90;;;;;;4753212;30;20691;-91
2024/01/06 01:27:02;;;;;;;31.83;16.03;;;2.60;99.90;;;;;;4753122;30;20200;-92
2024/01/06 01:29:28;;;;;;;30.33;14.83;;;2.60;99.90;;;;;;4753444;30;20224;-90
2024/01/06 01:31:54;;;;;;;41.03;15.50;;;2.60;99.90;;;;;;4753224;30;20212;-91
2024/01/06 01:34:19;;;;;;;34.43;14.63;;;2.60;99.90;;;;;;4753165;30;20273;-92
2024/01/06 01:36:45;;;;;;;35.33;15.67;;;2.60;99.90;;;;;;4745781;30;20594;-91
2024/01/06 01:39:11;;;;;;;30.77;14.87;;;2.60;99.90;;;;;;4745704;30;20207;-92
2024/01/06 01:41:37;;;;;;;35.57;15.83;;;2.70;99.90;;;;;;4749836;30;20652;-93
2024/01/06 01:44:03;;;;;;;31.37;15.37;;;2.60;99.90;;;;;;4752988;30;20207;-93
2024/01/06 01:46:30;;;;;;;31.53;15.10;;;2.60;99.90;;;;;;4753027;30;20373;-91
2024/01/06 01:48:57;;;;;;;32.27;14.93;;;2.60;99.90;;;;;;4753064;30;20196;-91
2024/01/06 01:51:26;;;;;;;32.47;15.07;;;2.60;99.90;;;;;;4745119;30;20263;-90
2024/01/06 01:53:53;;;;;;;30.10;14.13;;;2.70;99.90;;;;;;4752978;30;20204;-93
2024/01/06 01:56:20;;;;;;;35.23;15.93;;;2.60;99.90;;;;;;4752354;30;20578;-92
2024/01/06 01:58:47;;;;;;;32.17;15.43;;;2.70;99.90;;;;;;4753026;30;20688;-92
2024/01/06 02:01:14;;;;;;;29.50;15.27;;;2.60;99.90;;;;;;4752960;30;20610;-92
2024/01/06 02:03:43;;;;;;;43.50;17.23;;;2.60;99.90;;;;;;4753087;30;20287;-91
2024/01/06 02:06:10;;;;;;;38.13;15.97;;;2.70;99.90;;;;;;4752658;30;20223;-90
2024/01/06 02:08:36;;;;;;;35.10;16.17;;;2.70;99.90;;;;;;4752477;30;20262;-91
2024/01/06 02:11:03;;;;;;;35.90;16.30;;;2.70;99.90;;;;;;4748930;30;20315;-91
2024/01/06 02:13:36;;;;;;;37.83;16.33;;;2.70;99.90;;;;;;4752422;30;20215;-91
2024/01/06 02:16:22;;;;;;;37.63;16.70;;;2.70;99.90;;;;;;4752466;30;20197;-93
2024/01/06 02:18:49;;;;;;;35.50;15.97;;;2.70;99.90;;;;;;4751051;30;20196;-92
2024/01/06 02:21:21;;;;;;;37.67;15.90;;;2.70;99.90;;;;;;4751939;30;20751;-92
2024/01/06 02:23:47;;;;;;;31.10;15.30;;;2.70;99.90;;;;;;4753543;30;20196;-91
2024/01/06 02:26:14;;;;;;;31.60;15.40;;;2.70;99.90;;;;;;4752398;30;20247;-92
2024/01/06 02:28:40;;;;;;;27.90;13.83;;;2.70;99.90;;;;;;4752468;30;20234;-91
2024/01/06 02:31:06;;;;;;;27.40;13.83;;;2.70;99.90;;;;;;4744992;30;20695;-92
2024/01/06 02:33:32;;;;;;;31.67;14.93;;;2.70;99.90;;;;;;4753604;30;20204;-93
2024/01/06 02:35:58;;;;;;;33.43;15.80;;;2.60;99.90;;;;;;4746322;30;20604;-93
2024/01/06 02:38:24;;;;;;;34.43;14.83;;;2.70;99.90;;;;;;4753791;30;20192;-92
2024/01/06 02:40:49;;;;;;;31.57;15.20;;;2.60;99.90;;;;;;4750477;30;20236;-94
2024/01/06 02:43:15;;;;;;;31.77;15.40;;;2.60;99.90;;;;;;4743800;30;20224;-93
2024/01/06 02:45:42;;;;;;;30.10;16.03;;;2.70;99.90;;;;;;4752362;30;20201;-93
2024/01/06 02:48:08;;;;;;;29.80;14.50;;;2.60;99.90;;;;;;4752666;30;20227;-95
2024/01/06 02:50:33;;;;;;;30.33;15.27;;;2.70;99.90;;;;;;4752901;30;20278;-93
2024/01/06 02:52:59;;;;;;;32.23;15.87;;;2.70;99.90;;;;;;4752179;30;20200;-92
2024/01/06 02:55:25;;;;;;;30.23;13.67;;;2.70;99.90;;;;;;4738029;30;20207;-94
2024/01/06 02:57:51;;;;;;;26.57;13.27;;;2.70;99.90;;;;;;4752878;30;20196;-94
2024/01/06 03:00:16;;;;;;;26.53;14.40;;;2.70;99.90;;;;;;4750351;30;20215;-91
2024/01/06 03:02:42;;;;;;;28.93;14.07;;;2.70;99.90;;;;;;4748607;30;20535;-93
2024/01/06 03:05:10;;;;;;;26.97;14.17;;;2.70;99.90;;;;;;4748323;30;20209;-96
2024/01/06 03:07:36;;;;;;;32.27;14.17;;;2.70;99.90;;;;;;4757968;30;20617;-94
2024/01/06 03:10:02;;;;;;;28.33;14.47;;;2.70;99.90;;;;;;4756314;30;20235;-95
2024/01/06 03:12:28;;;;;;;34.03;15.30;;;2.70;99.90;;;;;;4752649;30;20365;-94
2024/01/06 03:14:54;;;;;;;27.60;14.40;;;2.70;99.90;;;;;;4756363;30;20657;-96
2024/01/06 03:17:20;;;;;;;28.07;14.50;;;2.70;99.90;;;;;;4755347;30;20203;-93
2024/01/06 03:19:46;;;;;;;30.67;14.43;;;2.70;99.90;;;;;;4756150;30;20220;-94
2024/01/06 03:22:11;;;;;;;31.23;14.40;;;2.70;99.90;;;;;;4755619;30;20653;-93
2024/01/06 03:24:37;;;;;;;28.57;14.60;;;2.70;99.90;;;;;;4748937;30;20196;-94
2024/01/06 03:27:03;;;;;;;30.10;15.10;;;2.70;99.90;;;;;;4755949;30;20585;-92
2024/01/06 03:29:29;;;;;;;29.53;14.80;;;2.70;99.90;;;;;;4749688;30;20672;-91
2024/01/06 03:31:55;;;;;;;29.50;15.37;;;2.60;99.90;;;;;;4755247;30;20196;-91
2024/01/06 03:34:20;;;;;;;34.83;15.30;;;2.70;99.90;;;;;;4748671;30;20656;-91
2024/01/06 03:36:46;;;;;;;29.13;14.30;;;2.70;99.90;;;;;;4755272;30;20200;-91
2024/01/06 03:39:13;;;;;;;29.93;14.50;;;2.70;99.90;;;;;;4755377;30;20236;-92
2024/01/06 03:41:39;;;;;;;32.63;15.17;;;2.70;99.90;;;;;;4752016;30;20220;-94
2024/01/06 03:44:05;;;;;;;31.70;16.47;;;2.70;99.90;;;;;;4755694;30;20647;-95
2024/01/06 03:46:32;;;;;;;30.97;15.13;;;2.70;99.90;;;;;;4755180;30;20196;-93
2024/01/06 03:48:59;;;;;;;33.70;15.63;;;2.70;99.90;;;;;;4749122;30;20704;-95
2024/01/06 03:51:24;;;;;;;32.60;15.50;;;2.70;99.90;;;;;;4748482;30;20580;-93
2024/01/06 03:53:50;;;;;;;33.60;16.17;;;2.70;99.90;;;;;;4754859;30;20204;-94
2024/01/06 03:56:16;;;;;;;31.50;15.17;;;2.70;99.90;;;;;;4754799;30;20204;-95
2024/01/06 03:58:42;;;;;;;32.27;15.63;;;2.70;99.90;;;;;;4750287;30;20202;-95
2024/01/06 04:01:07;;;;;;;32.10;15.90;;;2.70;99.90;;;;;;4745642;30;20231;-94
2024/01/06 04:03:33;;;;;;;33.73;16.80;;;2.70;99.90;;;;;;4755928;30;20204;-90
2024/01/06 04:05:59;;;;;;;37.23;16.77;;;2.70;99.90;;;;;;4755073;30;20204;-95
2024/01/06 04:08:25;;;;;;;34.20;16.27;;;2.70;99.90;;;;;;4762026;30;20303;-93
2024/01/06 04:10:51;;;;;;;32.87;16.57;;;2.70;99.90;;;;;;4754741;30;20751;-93
2024/01/06 04:13:17;;;;;;;30.07;14.77;;;2.70;99.90;;;;;;4756351;30;20196;-91
2024/01/06 04:15:42;;;;;;;31.97;15.47;;;2.70;99.90;;;;;;4764599;30;20195;-92
2024/01/06 04:18:09;;;;;;;33.27;16.70;;;2.70;99.90;;;;;;4764392;30;20240;-96
2024/01/06 04:20:35;;;;;;;36.10;16.77;;;2.70;99.90;;;;;;4737377;30;20204;-95
2024/01/06 04:23:01;;;;;;;31.10;15.37;;;2.70;99.90;;;;;;4772200;30;20271;-92
2024/01/06 04:25:28;;;;;;;32.50;15.63;;;2.70;99.90;;;;;;4772088;30;20294;-94
2024/01/06 04:27:53;;;;;;;35.67;16.83;;;2.70;99.90;;;;;;4771724;30;20238;-95
2024/01/06 04:30:20;;;;;;;31.87;15.90;;;2.70;99.90;;;;;;4766011;30;20251;-96
2024/01/06 04:32:48;;;;;;;30.53;15.07;;;2.80;99.90;;;;;;4771981;30;20364;-94
2024/01/06 04:35:14;;;;;;;33.00;15.67;;;2.70;99.90;;;;;;4771995;30;20227;-93
2024/01/06 04:37:40;;;;;;;29.80;15.17;;;2.80;99.90;;;;;;4772432;30;20543;-94
2024/01/06 04:40:06;;;;;;;30.00;15.83;;;2.70;99.90;;;;;;4764358;30;20192;-95
2024/01/06 04:42:32;;;;;;;34.10;16.83;;;2.70;99.90;;;;;;4768152;30;20230;-94
2024/01/06 04:44:57;;;;;;;42.40;17.50;;;2.70;99.90;;;;;;4772040;30;20219;-93
2024/01/06 04:47:25;;;;;;;36.73;17.20;;;2.70;99.90;;;;;;4773057;30;20204;-96
2024/01/06 04:49:50;;;;;;;36.30;17.17;;;2.70;99.90;;;;;;4765673;30;20231;-93
2024/01/06 04:52:16;;;;;;;40.63;17.73;;;2.70;99.90;;;;;;4772613;30;20192;-94
2024/01/06 04:54:42;;;;;;;40.87;19.17;;;2.70;99.90;;;;;;4771687;30;20287;-93
2024/01/06 04:57:08;;;;;;;45.53;17.67;;;2.70;99.90;;;;;;4770406;30;20654;-94
2024/01/06 04:59:33;;;;;;;39.07;18.23;;;2.70;99.90;;;;;;4751839;30;20666;-96
2024/01/06 05:01:59;;;;;;;44.53;19.53;;;2.70;99.90;;;;;;4764194;30;20252;-95
2024/01/06 05:04:25;;;;;;;37.97;19.07;;;2.70;99.90;;;;;;4756968;30;20195;-95
2024/01/06 05:06:54;;;;;;;42.90;19.17;;;2.70;99.90;;;;;;4765139;30;20239;-93
2024/01/06 05:09:20;;;;;;;43.10;19.57;;;2.80;99.90;;;;;;4748938;30;20779;-95
2024/01/06 05:11:46;;;;;;;44.73;20.13;;;2.70;99.90;;;;;;4758070;30;20331;-95
2024/01/06 05:14:12;;;;;;;44.40;19.47;;;2.80;99.90;;;;;;4756470;30;20215;-93
2024/01/06 05:16:38;;;;;;;42.90;19.90;;;2.70;99.90;;;;;;4772645;30;20211;-95
2024/01/06 05:19:03;;;;;;;44.20;20.30;;;2.70;99.90;;;;;;4772368;30;20208;-93
2024/01/06 05:21:30;;;;;;;46.07;20.37;;;2.70;99.90;;;;;;4771515;30;20191;-93
2024/01/06 05:23:56;;;;;;;41.97;19.23;;;2.70;99.90;;;;;;4774094;30;20219;-96
2024/01/06 05:26:22;;;;;;;42.07;18.90;;;2.70;99.90;;;;;;4770148;30;20660;-93
2024/01/06 05:28:48;;;;;;;45.43;19.70;;;2.70;99.90;;;;;;4750587;30;20202;-93
2024/01/06 05:31:14;;;;;;;44.50;18.93;;;2.70;99.90;;;;;;4754864;30;20235;-92
2024/01/06 05:33:39;;;;;;;39.93;17.70;;;2.70;99.90;;;;;;4771205;30;20547;-94
2024/01/06 05:36:05;;;;;;;40.47;17.93;;;2.70;99.90;;;;;;4771340;30;20245;-92
2024/01/06 05:38:31;;;;;;;37.97;17.77;;;2.70;99.90;;;;;;4770883;30;20192;-93
2024/01/06 05:40:57;;;;;;;42.83;18.50;;;2.70;99.90;;;;;;4768060;30;20204;-92
2024/01/06 05:43:22;;;;;;;40.87;18.50;;;2.70;99.90;;;;;;4768301;30;20212;-92
2024/01/06 05:45:49;;;;;;;42.17;18.27;;;2.80;99.90;;;;;;4745795;30;20200;-92
2024/01/06 05:48:15;;;;;;;41.00;18.50;;;2.70;99.90;;;;;;4754537;30;20244;-94
2024/01/06 05:50:41;;;;;;;39.27;18.93;;;2.70;99.90;;;;;;4770365;30;20223;-91
2024/01/06 05:53:07;;;;;;;42.33;19.87;;;2.70;99.90;;;;;;4770689;30;20586;-94
2024/01/06 05:55:34;;;;;;;38.07;16.60;;;2.70;99.90;;;;;;4770490;30;20195;-93
2024/01/06 05:58:00;;;;;;;41.63;17.33;;;2.70;99.90;;;;;;4762717;30;20644;-90
2024/01/06 06:00:27;;;;;;;40.37;18.33;;;2.70;99.90;;;;;;4753098;30;20200;-91
2024/01/06 06:02:52;;;;;;;41.47;18.97;;;2.70;99.90;;;;;;4751828;30;20236;-93
2024/01/06 06:05:19;;;;;;;34.73;17.23;;;2.80;99.90;;;;;;4770606;30;20200;-92
2024/01/06 06:07:44;;;;;;;38.67;17.10;;;2.80;99.90;;;;;;4770204;30;20196;-92
2024/01/06 06:10:11;;;;;;;38.17;16.77;;;2.80;99.90;;;;;;4770207;30;20659;-93
2024/01/06 06:12:38;;;;;;;35.67;17.00;;;2.80;99.90;;;;;;4763724;30;20240;-92
2024/01/06 06:15:04;;;;;;;34.43;16.13;;;2.80;99.90;;;;;;4752965;30;20551;-93
2024/01/06 06:17:32;;;;;;;33.90;15.83;;;2.70;99.90;;;;;;4752459;30;20196;-92
2024/01/06 06:19:58;;;;;;;36.53;16.27;;;2.70;99.90;;;;;;4752747;30;20193;-95
2024/01/06 06:22:26;;;;;;;35.43;15.73;;;2.80;99.90;;;;;;4752633;30;20292;-93
2024/01/06 06:24:52;;;;;;;33.63;16.77;;;2.70;99.90;;;;;;4753573;30;20189;-92
2024/01/06 06:27:18;;;;;;;37.03;16.20;;;2.80;99.90;;;;;;4751894;30;20241;-91
2024/01/06 06:29:44;;;;;;;34.47;16.67;;;2.70;99.90;;;;;;4745069;30;20228;-94
2024/01/06 06:32:09;;;;;;;33.13;16.30;;;2.80;99.90;;;;;;4752345;30;20373;-94
2024/01/06 06:34:35;;;;;;;33.80;16.80;;;2.70;99.90;;;;;;4747908;30;20264;-92
2024/01/06 06:37:01;;;;;;;33.90;15.50;;;2.70;99.90;;;;;;4748983;30;20208;-92
2024/01/06 06:39:27;;;;;;;29.53;14.70;;;2.70;99.90;;;;;;4752939;30;20207;-94
2024/01/06 06:41:53;;;;;;;29.77;14.20;;;2.70;99.90;;;;;;4748345;30;20315;-91
2024/01/06 06:44:18;;;;;;;33.80;14.93;;;2.70;99.90;;;;;;4745440;30;20532;-92
2024/01/06 06:46:44;;;;;;;30.83;14.13;;;2.70;99.90;;;;;;4754575;30;20282;-94
2024/01/06 06:49:10;;;;;;;30.70;14.87;;;2.70;99.90;;;;;;4752080;30;20771;-94
2024/01/06 06:51:36;;;;;;;28.87;13.77;;;2.70;99.90;;;;;;4752192;30;20637;-92
2024/01/06 06:54:02;;;;;;;31.87;15.07;;;2.70;99.90;;;;;;4744536;30;20188;-93
2024/01/06 06:56:27;;;;;;;26.83;13.50;;;2.70;99.90;;;;;;4752115;30;20651;-93
2024/01/06 06:58:53;;;;;;;27.60;13.77;;;2.60;99.90;;;;;;4751313;30;20199;-93
2024/01/06 07:01:19;;;;;;;27.50;13.73;;;2.70;99.90;;;;;;4749474;30;20211;-92
2024/01/06 07:03:45;;;;;;;31.93;14.20;;;2.70;99.90;;;;;;4751003;30;20236;-94
2024/01/06 07:06:14;;;;;;;30.80;13.47;;;2.70;99.90;;;;;;4741790;30;20343;-95
2024/01/06 07:08:41;;;;;;;28.43;13.20;;;2.70;99.90;;;;;;4751601;30;20193;-96
2024/01/06 07:11:07;;;;;;;28.90;13.57;;;2.60;99.90;;;;;;4747493;30;20244;-95
2024/01/06 07:13:33;;;;;;;27.70;14.00;;;2.60;99.90;;;;;;4752124;30;20203;-94
2024/01/06 07:15:59;;;;;;;28.53;12.97;;;2.60;99.90;;;;;;4736555;30;20197;-95
2024/01/06 07:18:26;;;;;;;29.93;14.27;;;2.60;99.90;;;;;;4750915;30;20192;-94
2024/01/06 07:20:51;;;;;;;32.47;14.33;;;2.60;99.90;;;;;;4744002;30;20197;-94
2024/01/06 07:23:17;;;;;;;30.43;14.63;;;2.60;99.90;;;;;;4749147;30;20203;-95
2024/01/06 07:25:43;;;;;;;34.20;16.10;;;2.60;99.90;;;;;;4750175;30;20267;-96
2024/01/06 07:28:09;;;;;;;33.87;16.27;;;2.60;99.90;;;;;;4750620;30;20234;-93
2024/01/06 07:30:34;;;;;;;35.10;17.17;;;2.50;99.90;;;;;;4750211;30;20228;-94
2024/01/06 07:33:00;;;;;;;37.63;16.83;;;2.60;99.90;;;;;;4750824;30;20647;-95
2024/01/06 07:35:26;;;;;;;38.70;16.67;;;2.60;99.90;;;;;;4752271;30;20570;-94
2024/01/06 07:37:53;;;;;;;39.40;17.73;;;2.60;99.90;;;;;;4745282;30;20201;-94
2024/01/06 07:40:18;;;;;;;34.03;16.73;;;2.50;99.90;;;;;;4750322;30;20208;-95
2024/01/06 07:42:44;;;;;;;34.53;16.30;;;2.50;99.90;;;;;;4739528;30;20196;-93
2024/01/06 07:45:10;;;;;;;35.53;17.20;;;2.50;99.90;;;;;;4753467;30;20200;-93
2024/01/06 07:47:37;;;;;;;37.70;16.93;;;2.50;99.90;;;;;;4752016;30;20217;-94
2024/01/06 07:50:05;;;;;;;35.83;15.50;;;2.50;99.90;;;;;;4753407;30;20228;-92
2024/01/06 07:52:30;;;;;;;36.73;17.13;;;2.50;99.90;;;;;;4763404;30;20354;-93
2024/01/06 07:54:56;;;;;;;36.63;16.60;;;2.50;99.90;;;;;;4755468;30;20287;-92
2024/01/06 07:57:22;;;;;;;32.37;16.07;;;2.50;99.90;;;;;;4755548;30;20196;-94
2024/01/06 07:59:48;;;;;;;32.63;16.60;;;2.50;99.90;;;;;;4749447;30;20204;-91
2024/01/06 08:02:13;;;;;;;34.93;15.83;;;2.50;99.90;;;;;;4753211;30;20212;-96
2024/01/06 08:04:42;;;;;;;33.47;16.17;;;2.40;99.90;;;;;;4747083;30;20544;-92
2024/01/06 08:07:09;;;;;;;35.30;16.57;;;2.40;99.90;;;;;;4740813;30;20186;-91
2024/01/06 08:09:35;;;;;;;36.90;17.03;;;2.40;99.90;;;;;;4739621;30;20660;-92
2024/01/06 08:12:03;;;;;;;40.40;18.37;;;2.40;99.90;;;;;;4733491;30;20324;-95
2024/01/06 08:14:28;;;;;;;32.93;16.97;;;2.40;99.90;;;;;;4747049;30;20199;-93
2024/01/06 08:16:54;;;;;;;34.50;16.97;;;2.40;99.90;;;;;;4743315;30;20200;-92
2024/01/06 08:19:20;;;;;;;36.60;16.83;;;2.40;99.90;;;;;;4754950;30;20192;-95
2024/01/06 08:21:47;;;;;;;33.63;16.33;;;2.40;99.90;;;;;;4749451;30;20211;-92
2024/01/06 08:24:12;;;;;;;35.50;17.97;;;2.40;99.90;;;;;;4751924;30;20207;-96
2024/01/06 08:26:38;;;;;;;34.87;16.80;;;2.40;99.90;;;;;;4748613;30;20208;-90
2024/01/06 08:29:04;;;;;;;36.20;17.43;;;2.40;99.90;;;;;;4753832;30;20590;-94
2024/01/06 08:31:30;;;;;;;38.10;18.60;;;2.40;99.90;;;;;;4754627;30;20228;-94
2024/01/06 08:33:55;;;;;;;32.97;16.97;;;2.40;99.90;;;;;;4753567;30;20208;-94
2024/01/06 08:36:21;;;;;;;35.60;17.80;;;2.40;99.90;;;;;;4753742;30;20612;-95
2024/01/06 08:38:48;;;;;;;35.83;17.13;;;2.50;99.90;;;;;;4755343;30;20291;-95
2024/01/06 08:41:14;;;;;;;33.23;17.13;;;2.40;99.90;;;;;;4750563;30;20235;-96
2024/01/06 08:43:40;;;;;;;37.67;17.07;;;2.40;99.90;;;;;;4750111;30;20718;-94
2024/01/06 08:46:06;;;;;;;30.40;16.07;;;2.40;99.90;;;;;;4751317;30;20201;-94
2024/01/06 08:48:32;;;;;;;31.47;15.67;;;2.30;99.90;;;;;;4748064;30;20242;-95
2024/01/06 08:50:58;;;;;;;31.47;15.27;;;2.30;99.90;;;;;;4746695;30;20258;-96
2024/01/06 08:53:23;;;;;;;31.60;15.27;;;2.30;99.90;;;;;;4742297;30;20207;-95
2024/01/06 08:55:49;;;;;;;29.40;15.80;;;2.30;99.90;;;;;;4758753;30;20192;-94
2024/01/06 08:58:15;;;;;;;37.60;17.03;;;2.30;99.90;;;;;;4754776;30;20197;-96
2024/01/06 09:00:43;;;;;;;33.63;15.93;;;2.30;99.90;;;;;;4752233;30;20236;-96
2024/01/06 09:03:09;;;;;;;29.80;14.77;;;2.20;99.90;;;;;;4753233;30;20271;-94
2024/01/06 09:05:36;;;;;;;29.40;15.20;;;2.30;99.90;;;;;;4753961;30;20231;-95
2024/01/06 09:08:03;;;;;;;31.27;16.03;;;2.20;99.90;;;;;;4749008;30;20709;-92
2024/01/06 09:10:29;;;;;;;37.20;17.83;;;2.20;99.90;;;;;;4756619;30;20237;-94
2024/01/06 09:12:55;;;;;;;32.23;15.67;;;2.20;99.90;;;;;;4754378;30;20560;-94
2024/01/06 09:15:20;;;;;;;36.10;15.87;;;2.20;99.90;;;;;;4764644;30;20209;-93
2024/01/06 09:17:46;;;;;;;33.73;16.80;;;2.20;99.90;;;;;;4772529;30;20265;-93
2024/01/06 09:20:13;;;;;;;33.10;16.47;;;2.20;99.90;;;;;;4769988;30;20617;-95
2024/01/06 09:22:39;;;;;;;39.10;17.73;;;2.20;99.90;;;;;;4770469;30;20199;-93
2024/01/06 09:25:05;;;;;;;35.67;17.13;;;2.20;99.90;;;;;;4771363;30;20199;-94
2024/01/06 09:27:31;;;;;;;35.53;16.83;;;2.30;99.90;;;;;;4770443;30;20204;-91
2024/01/06 09:29:56;;;;;;;36.17;17.17;;;2.30;99.90;;;;;;4771940;30;20677;-93
2024/01/06 09:32:22;;;;;;;35.33;18.30;;;2.20;99.90;;;;;;4770786;30;20214;-93
2024/01/06 09:34:49;;;;;;;36.53;17.77;;;2.30;99.90;;;;;;4766420;30;20204;-93
2024/01/06 09:37:15;;;;;;;43.63;19.17;;;2.30;99.90;;;;;;4750181;30;20346;-95
2024/01/06 09:39:40;;;;;;;39.10;18.87;;;2.30;99.90;;;;;;4771921;30;20196;-94
2024/01/06 09:42:06;;;;;;;41.20;18.93;;;2.20;99.90;;;;;;4773191;30;20204;-93
2024/01/06 09:44:33;;;;;;;40.10;18.73;;;2.20;99.90;;;;;;4771123;30;20199;-95
2024/01/06 09:47:00;;;;;;;45.17;20.83;;;2.20;99.90;;;;;;4770807;30;20208;-93
2024/01/06 09:49:28;;;;;;;38.77;18.50;;;2.20;99.90;;;;;;4771573;30;20200;-93
2024/01/06 09:51:58;;;;;;;47.43;20.73;;;2.20;99.90;;;;;;4770284;30;20294;-96
2024/01/06 09:54:28;;;;;;;40.30;19.67;;;2.20;99.90;;;;;;4771031;30;20204;-96
2024/01/06 09:56:56;;;;;;;37.40;17.43;;;2.20;99.90;;;;;;4770640;30;20208;-94
2024/01/06 09:59:22;;;;;;;40.57;17.30;;;2.20;99.90;;;;;;4769966;30;20656;-93
2024/01/06 10:01:50;;;;;;;37.77;18.43;;;2.30;99.90;;;;;;4771535;30;20214;-95
2024/01/06 10:04:16;;;;;;;35.73;16.37;;;2.20;99.90;;;;;;4764596;30;20617;-95
2024/01/06 10:06:42;;;;;;;34.93;17.13;;;2.20;99.90;;;;;;4763289;30;20207;-95
2024/01/06 10:09:08;;;;;;;34.40;16.73;;;2.20;99.90;;;;;;4773022;30;20196;-94
2024/01/06 10:11:37;;;;;;;34.83;16.50;;;2.20;99.90;;;;;;4762302;30;20742;-90
2024/01/06 10:14:04;;;;;;;38.43;17.20;;;2.20;99.90;;;;;;4739843;30;20219;-93
2024/01/06 10:16:29;;;;;;;36.37;15.80;;;2.20;99.90;;;;;;4770701;30;20597;-95
2024/01/06 10:18:56;;;;;;;34.50;16.23;;;2.20;99.90;;;;;;4763281;30;20234;-94
2024/01/06 10:21:22;;;;;;;36.43;17.33;;;2.30;99.90;;;;;;4769963;30;20596;-94
2024/01/06 10:23:48;;;;;;;45.17;18.67;;;2.30;99.90;;;;;;4770525;30;20219;-95
2024/01/06 10:26:15;;;;;;;35.50;17.13;;;2.30;99.90;;;;;;4770118;30;20204;-95
2024/01/06 10:28:41;;;;;;;34.60;16.60;;;2.30;99.90;;;;;;4755496;30;20303;-93
2024/01/06 10:31:08;;;;;;;30.23;15.57;;;2.30;99.90;;;;;;4770031;30;20235;-95
2024/01/06 10:33:34;;;;;;;32.07;15.73;;;2.30;99.90;;;;;;4767477;30;20291;-93
2024/01/06 10:36:02;;;;;;;36.87;17.23;;;2.30;99.90;;;;;;4752548;30;20199;-94
2024/01/06 10:38:29;;;;;;;40.23;17.87;;;2.30;99.90;;;;;;4762911;30;20287;-93
2024/01/06 10:41:08;;;;;;;37.50;17.47;;;2.20;99.90;;;;;;4767613;30;20201;-93
2024/01/06 10:43:37;;;;;;;32.10;16.53;;;2.20;99.90;;;;;;4742442;30;20195;-96
2024/01/06 10:46:04;;;;;;;38.03;17.23;;;2.20;99.90;;;;;;4771561;30;20196;-96
2024/01/06 10:48:35;;;;;;;39.53;18.47;;;2.20;99.90;;;;;;4748404;30;20534;-94
2024/01/06 10:51:02;;;;;;;38.33;18.33;;;2.20;99.90;;;;;;4769685;30;20269;-92
2024/01/06 10:53:30;;;;;;;38.37;18.67;;;2.20;99.90;;;;;;4755307;30;20538;-91
2024/01/06 10:55:58;;;;;;;41.80;18.10;;;2.20;99.90;;;;;;4763611;30;20202;-95
2024/01/06 10:58:24;;;;;;;42.47;19.60;;;2.20;99.90;;;;;;4770266;30;20202;-92
2024/01/06 11:00:50;;;;;;;39.13;19.27;;;2.20;99.90;;;;;;4770028;30;20200;-94
2024/01/06 11:03:18;;;;;;;39.53;19.13;;;2.20;99.90;;;;;;4769200;30;20528;-93
2024/01/06 11:05:44;;;;;;;40.47;18.47;;;2.20;99.90;;;;;;4770284;30;20201;-93
2024/01/06 11:08:11;;;;;;;40.30;18.53;;;2.10;99.90;;;;;;4769617;30;20686;-92
2024/01/06 11:10:38;;;;;;;38.47;18.03;;;2.20;99.90;;;;;;4768916;30;20280;-95
2024/01/06 11:13:11;;;;;;;43.47;18.73;;;2.20;99.90;;;;;;4745689;30;20207;-91
2024/01/06 11:15:48;;;;;;;45.80;19.43;;;2.20;99.90;;;;;;4769698;30;20269;-92
2024/01/06 11:18:40;;;;;;;44.00;20.00;;;2.10;99.90;;;;;;4769425;30;20196;-92
2024/01/06 11:21:36;;;;;;;47.27;20.20;;;2.10;99.90;;;;;;4770211;30;20208;-95
2024/01/06 11:24:20;;;;;;;44.63;19.57;;;2.10;99.90;;;;;;4770438;30;20199;-94
2024/01/06 11:26:49;;;;;;;42.83;19.27;;;2.10;99.90;;;;;;4773463;30;20280;-92
2024/01/06 11:29:15;;;;;;;46.77;19.00;;;2.20;99.90;;;;;;4763967;30;20206;-91
2024/01/06 11:31:41;;;;;;;47.33;19.83;;;2.20;99.90;;;;;;4752653;30;20594;-93
2024/01/06 11:34:16;;;;;;;39.77;18.30;;;2.10;99.90;;;;;;4773981;30;20192;-93
2024/01/06 11:36:49;;;;;;;40.03;18.33;;;2.10;99.90;;;;;;4758393;30;20200;-92
2024/01/06 11:39:34;;;;;;;43.17;17.77;;;2.00;99.90;;;;;;4773054;30;20632;-93
2024/01/06 11:42:02;;;;;;;44.07;19.40;;;2.00;99.90;;;;;;4768926;30;20203;-92
2024/01/06 11:44:28;;;;;;;42.60;18.07;;;2.00;99.90;;;;;;4772397;30;20200;-92
2024/01/06 11:46:59;;;;;;;42.10;18.37;;;2.00;99.90;;;;;;4767872;30;20204;-92
2024/01/06 11:49:30;;;;;;;39.43;18.03;;;2.00;99.90;;;;;;4746301;30;20185;-94
2024/01/06 11:52:00;;;;;;;36.33;16.30;;;2.00;99.90;;;;;;4754537;30;20542;-93
2024/01/06 11:54:26;;;;;;;38.03;17.40;;;1.90;99.90;;;;;;4765353;30;20241;-92
2024/01/06 11:56:55;;;;;;;33.17;16.03;;;2.00;99.90;;;;;;4765216;30;20290;-92
2024/01/06 11:59:22;;;;;;;34.80;16.73;;;2.00;99.90;;;;;;4772413;30;20200;-91
2024/01/06 12:01:47;;;;;;;37.00;16.37;;;2.00;99.90;;;;;;4767325;30;20195;-92
2024/01/06 12:04:15;;;;;;;31.50;15.70;;;2.00;99.90;;;;;;4772625;30;20231;-91
2024/01/06 12:06:41;;;;;;;38.60;16.83;;;2.00;99.90;;;;;;4772843;30;20207;-93
2024/01/06 12:09:15;;;;;;;35.13;16.20;;;2.00;99.90;;;;;;4772398;30;20207;-93
2024/01/06 12:11:41;;;;;;;32.60;15.37;;;2.00;99.90;;;;;;4764816;30;20338;-90
2024/01/06 12:14:07;;;;;;;30.50;14.57;;;1.90;99.90;;;;;;4750406;30;20239;-92
2024/01/06 12:16:33;;;;;;;36.03;15.73;;;1.90;99.90;;;;;;4772051;30;20196;-92
2024/01/06 12:19:00;;;;;;;30.93;14.43;;;1.90;99.90;;;;;;4765077;30;20776;-91
2024/01/06 12:21:32;;;;;;;33.33;15.13;;;1.90;99.90;;;;;;4769506;30;20563;-94
2024/01/06 12:24:21;;;;;;;31.00;14.33;;;1.90;99.90;;;;;;4747044;30;20200;-93
2024/01/06 12:26:48;;;;;;;27.97;14.13;;;1.90;99.90;;;;;;4755963;30;20281;-91
2024/01/06 12:29:14;;;;;;;32.57;14.53;;;1.90;99.90;;;;;;4755353;30;20203;-92
2024/01/06 12:31:41;;;;;;;31.50;14.67;;;1.90;99.90;;;;;;4761065;30;20235;-91
2024/01/06 12:34:11;;;;;;;36.93;15.37;;;1.90;99.90;;;;;;4756353;30;20192;-94